EmailTwitter


Observations de surface / Royaume-Uni / EGLL (03772)

Régions: Québec | Canada | États-Unis | Europe | France | UK | Ailleurs
Station
Affichage
Infos & localisation pour EGLL (03772) | Aide pour décoder les METARs

Observations prises le 2021-03-08 à 03H20 UTC à LONDON/HEATHROW, UK (EGLL)

Température: 0.0 Celsius

Point de rosée: -3.0 Celsius

Humidité relative: 80%

Vents: Sud à 6 km/h ou 3 noeuds.

Pression au niveau moyen de la mer: 102.40 kilopascals.

Visibilité horizontale: 6.21 milles terrestres ou 9.94 kilomètres.

Observation METAR:

EGLL 080320Z AUTO 18003KT 9999 NCD M00/M03 Q1024 NOSIG=